Time;durP1;ratioP1;P1;durP2;ratioP2;P2;SDS_P1;SDS_P2;PMS_P1;PMS_P2;Temp;Humidity;BMP_temperature;BMP_pressure;BME280_temperature;BME280_humidity;BME280_pressure;Samples;Min_cycle;Max_cycle;Signal;HPM_P1;HPM_P2
2023/04/03 00:00:37;;;;;;;3.67;3.37;;;;;4.10;96898.00;;;;8395516;28;20202;-74
2023/04/03 00:04:44;;;;;;;4.23;3.50;;;;;4.10;96898.00;;;;8297747;28;2332271;-74
2023/04/03 00:08:51;;;;;;;3.33;3.03;;;;;4.10;96903.00;;;;8397904;28;20253;-74
2023/04/03 00:12:57;;;;;;;3.60;3.30;;;;;4.10;96904.00;;;;8397028;28;20201;-73
2023/04/03 00:17:00;;;;;;;4.10;3.67;;;;;4.10;96903.00;;;;8393806;28;20215;-73
2023/04/03 00:21:06;;;;;;;5.07;3.47;;;;;4.10;96910.00;;;;8403270;28;20206;-73
2023/04/03 00:25:11;;;;;;;4.63;3.80;;;;;4.00;96903.00;;;;8402975;28;20234;-74
2023/04/03 00:29:22;;;;;;;3.43;3.13;;;;;4.00;96907.00;;;;8404127;28;20193;-73
2023/04/03 00:33:25;;;;;;;3.93;3.57;;;;;4.00;96909.00;;;;8402741;28;20239;-73
2023/04/03 00:37:32;;;;;;;3.87;3.47;;;;;4.00;96905.00;;;;8402577;28;20262;-73
2023/04/03 00:41:36;;;;;;;4.80;3.27;;;;;4.00;96905.00;;;;8401531;28;20190;-74
2023/04/03 00:45:41;;;;;;;5.00;2.90;;;;;4.00;96916.00;;;;8402457;28;20194;-74
2023/04/03 00:49:49;;;;;;;3.87;3.17;;;;;4.00;96913.00;;;;8402998;28;20184;-74
2023/04/03 00:53:59;;;;;;;6.43;3.43;;;;;3.90;96910.00;;;;8402712;28;20700;-73
2023/04/03 00:58:10;;;;;;;3.67;3.10;;;;;3.90;96907.00;;;;8384559;28;20275;-74
2023/04/03 01:02:13;;;;;;;4.17;3.00;;;;;3.90;96901.00;;;;8402721;28;20381;-74
2023/04/03 01:06:20;;;;;;;3.70;3.40;;;;;3.90;96900.00;;;;8401599;28;20207;-74
2023/04/03 01:10:25;;;;;;;3.33;3.03;;;;;3.80;96905.00;;;;8402547;28;20243;-74
2023/04/03 01:14:33;;;;;;;7.33;3.77;;;;;3.70;96907.00;;;;8401707;28;20247;-73
2023/04/03 01:18:43;;;;;;;5.10;3.80;;;;;3.70;96896.00;;;;8401698;28;20245;-73
2023/04/03 01:22:57;;;;;;;4.47;3.20;;;;;3.70;96901.00;;;;8401811;28;20694;-74
2023/04/03 01:27:04;;;;;;;4.27;3.40;;;;;3.70;96902.00;;;;8402133;28;20221;-74
2023/04/03 01:31:16;;;;;;;3.57;3.23;;;;;3.60;96909.00;;;;8401517;28;20637;-75
2023/04/03 01:35:22;;;;;;;4.23;3.40;;;;;3.60;96914.00;;;;8399657;28;20222;-74
2023/04/03 01:39:25;;;;;;;3.80;3.40;;;;;3.60;96918.00;;;;8401237;28;20204;-75
2023/04/03 01:43:31;;;;;;;6.43;3.80;;;;;3.70;96917.00;;;;8400277;28;20195;-73
2023/04/03 01:47:36;;;;;;;3.40;3.10;;;;;3.70;96919.00;;;;8400501;28;20226;-75
2023/04/03 01:51:41;;;;;;;4.20;3.30;;;;;3.70;96922.00;;;;8400162;28;20198;-74
2023/04/03 01:55:47;;;;;;;6.40;3.40;;;;;3.70;96927.00;;;;8383533;28;20250;-75
2023/04/03 01:59:51;;;;;;;6.20;3.63;;;;;3.60;96931.00;;;;8400966;28;20199;-73
2023/04/03 02:03:55;;;;;;;3.70;3.37;;;;;3.60;96927.00;;;;8383070;28;20573;-74
2023/04/03 02:07:59;;;;;;;3.33;3.03;;;;;3.60;96925.00;;;;8400854;28;20192;-75
2023/04/03 02:12:04;;;;;;;4.20;3.40;;;;;3.60;96925.00;;;;8399399;28;20238;-75
2023/04/03 02:16:10;;;;;;;4.00;3.60;;;;;3.60;96920.00;;;;8399084;28;20221;-75
2023/04/03 02:20:13;;;;;;;5.20;2.80;;;;;3.60;96923.00;;;;8399616;28;20195;-75
2023/04/03 02:24:18;;;;;;;5.90;3.60;;;;;3.60;96916.00;;;;8400273;28;20529;-74
2023/04/03 02:28:21;;;;;;;3.53;3.23;;;;;3.60;96922.00;;;;8399213;28;20195;-74
2023/04/03 02:32:24;;;;;;;3.60;3.30;;;;;3.60;96932.00;;;;8397962;28;20195;-75
2023/04/03 02:36:29;;;;;;;4.30;3.90;;;;;3.50;96925.00;;;;8399438;28;20221;-74
2023/04/03 02:40:38;;;;;;;3.70;3.30;;;;;3.50;96924.00;;;;8397604;28;20181;-74
2023/04/03 02:44:44;;;;;;;3.80;3.30;;;;;3.50;96919.00;;;;8398500;28;20191;-73
2023/04/03 02:48:47;;;;;;;4.63;3.40;;;;;3.50;96920.00;;;;8398353;28;20203;-74
2023/04/03 02:52:53;;;;;;;7.07;3.50;;;;;3.50;96925.00;;;;8398346;28;20189;-74
2023/04/03 02:57:01;;;;;;;5.17;3.60;;;;;3.50;96930.00;;;;8398902;28;20530;-74
2023/04/03 03:01:08;;;;;;;4.37;3.50;;;;;3.50;96925.00;;;;8393787;23;20235;-75
2023/04/03 03:05:11;;;;;;;5.33;3.70;;;;;3.50;96923.00;;;;8337761;28;20550;-75
2023/04/03 03:09:15;;;;;;;3.70;3.40;;;;;3.50;96924.00;;;;8342068;28;20201;-75
2023/04/03 03:13:20;;;;;;;4.60;3.83;;;;;3.50;96919.00;;;;8341278;28;20804;-75
2023/04/03 03:17:25;;;;;;;3.93;3.60;;;;;3.40;96920.00;;;;8337514;28;20251;-75
2023/04/03 03:21:31;;;;;;;3.40;3.10;;;;;3.40;96925.00;;;;8310015;28;20822;-76
2023/04/03 03:25:42;;;;;;;3.83;3.53;;;;;3.40;96913.00;;;;8297283;28;20257;-76
2023/04/03 03:29:47;;;;;;;5.60;3.60;;;;;3.30;96922.00;;;;8316881;28;20256;-75
2023/04/03 03:33:51;;;;;;;5.83;3.40;;;;;3.30;96922.00;;;;8317119;28;20511;-76
2023/04/03 03:38:00;;;;;;;5.13;3.43;;;;;3.30;96910.00;;;;8313145;28;20302;-76
2023/04/03 03:42:03;;;;;;;4.37;3.60;;;;;3.30;96919.00;;;;8313528;28;20201;-76
2023/04/03 03:46:08;;;;;;;6.97;3.77;;;;;3.30;96922.00;;;;8309667;28;20202;-75
2023/04/03 03:50:12;;;;;;;5.33;3.57;;;;;3.30;96921.00;;;;8306037;28;20304;-75
2023/04/03 03:54:15;;;;;;;4.43;3.33;;;;;3.30;96922.00;;;;8315502;28;20205;-74
2023/04/03 03:58:22;;;;;;;6.17;3.23;;;;;3.30;96919.00;;;;8318590;28;20220;-77
2023/04/03 04:02:26;;;;;;;3.77;3.13;;;;;3.30;96920.00;;;;8320738;28;20271;-76
2023/04/03 04:06:32;;;;;;;4.90;3.80;;;;;3.20;96912.00;;;;8303331;28;20244;-76
2023/04/03 04:10:38;;;;;;;4.13;3.50;;;;;3.30;96926.00;;;;8314953;28;20641;-75
2023/04/03 04:14:46;;;;;;;4.33;3.60;;;;;3.30;96929.00;;;;8294594;28;20572;-74
2023/04/03 04:18:57;;;;;;;5.33;3.60;;;;;3.30;96930.00;;;;8312482;28;20228;-76
2023/04/03 04:23:00;;;;;;;7.57;3.83;;;;;3.20;96934.00;;;;8321782;28;20204;-76
2023/04/03 04:27:05;;;;;;;3.70;3.40;;;;;3.20;96932.00;;;;8301913;28;20197;-75
2023/04/03 04:31:14;;;;;;;4.60;3.20;;;;;3.20;96935.00;;;;8321665;28;20192;-75
2023/04/03 04:35:19;;;;;;;5.70;4.00;;;;;3.20;96936.00;;;;8320638;28;20211;-76
2023/04/03 04:39:22;;;;;;;5.33;3.63;;;;;3.20;96939.00;;;;8319643;28;20263;-74
2023/04/03 04:43:26;;;;;;;4.27;3.77;;;;;3.20;96936.00;;;;8313988;28;20201;-77
2023/04/03 04:47:30;;;;;;;11.13;4.00;;;;;3.20;96939.00;;;;8307621;28;20201;-76
2023/04/03 04:51:35;;;;;;;5.97;3.90;;;;;3.10;96941.00;;;;8316154;28;20195;-75
2023/04/03 04:55:53;;;;;;;7.27;3.70;;;;;3.10;96949.00;;;;8304260;28;20705;-76
2023/04/03 04:59:58;;;;;;;8.13;4.23;;;;;3.10;96947.00;;;;8317524;28;20237;-75
2023/04/03 05:04:04;;;;;;;10.60;3.63;;;;;3.10;96943.00;;;;8318067;28;20224;-77
2023/04/03 05:08:09;;;;;;;4.10;3.70;;;;;3.10;96949.00;;;;8318025;28;20220;-75
2023/04/03 05:12:13;;;;;;;4.70;3.63;;;;;3.10;96946.00;;;;8317982;28;20648;-75
2023/04/03 05:16:17;;;;;;;8.30;3.63;;;;;3.20;96957.00;;;;8317946;28;20203;-75
2023/04/03 05:20:24;;;;;;;6.87;3.77;;;;;3.20;96955.00;;;;8315088;28;20199;-75
2023/04/03 05:24:29;;;;;;;4.27;3.60;;;;;3.20;96958.00;;;;8314376;28;20194;-75
2023/04/03 05:28:32;;;;;;;5.70;3.63;;;;;3.30;96956.00;;;;8317086;28;20201;-75
2023/04/03 05:32:35;;;;;;;3.73;3.10;;;;;3.30;96959.00;;;;8317149;28;20206;-75
2023/04/03 05:36:46;;;;;;;8.43;3.53;;;;;3.40;96961.00;;;;8308349;28;20221;-75
2023/04/03 05:40:51;;;;;;;5.47;3.30;;;;;3.40;96962.00;;;;8315630;28;20209;-75
2023/04/03 05:44:56;;;;;;;5.03;3.60;;;;;3.40;96958.00;;;;8307495;28;20199;-75
2023/04/03 05:49:00;;;;;;;8.77;3.60;;;;;3.50;96962.00;;;;8322220;28;20208;-75
2023/04/03 05:53:06;;;;;;;4.57;3.50;;;;;3.50;96972.00;;;;8315081;28;20201;-74
2023/04/03 05:57:12;;;;;;;4.57;3.57;;;;;3.50;96970.00;;;;8312697;28;20223;-74
2023/04/03 06:01:17;;;;;;;4.30;3.67;;;;;3.60;96970.00;;;;8313199;28;20837;-75
2023/04/03 06:05:22;;;;;;;3.60;3.30;;;;;3.70;96982.00;;;;8316154;28;20200;-76
2023/04/03 06:09:28;;;;;;;4.67;3.80;;;;;3.70;96980.00;;;;8311453;28;20199;-75
2023/04/03 06:13:35;;;;;;;8.03;3.70;;;;;3.80;96973.00;;;;8308324;28;20208;-76
2023/04/03 06:17:38;;;;;;;7.33;3.90;;;;;3.90;96977.00;;;;8315603;28;20256;-74
2023/04/03 06:21:42;;;;;;;8.57;3.97;;;;;3.90;96984.00;;;;8312077;28;20204;-73
2023/04/03 06:25:46;;;;;;;4.87;3.83;;;;;4.10;96983.00;;;;8314150;28;20213;-74
2023/04/03 06:29:50;;;;;;;4.80;3.93;;;;;4.20;96986.00;;;;8285298;28;20206;-75
2023/04/03 06:33:59;;;;;;;5.20;3.33;;;;;4.20;96988.00;;;;8299618;28;20197;-75
2023/04/03 06:38:03;;;;;;;7.57;4.00;;;;;4.20;96988.00;;;;8283618;28;20552;-75
2023/04/03 06:42:08;;;;;;;9.97;4.67;;;;;4.30;97004.00;;;;8298518;28;20280;-75
2023/04/03 06:46:16;;;;;;;7.70;4.40;;;;;4.40;96993.00;;;;8298810;28;20197;-74
2023/04/03 06:50:21;;;;;;;8.60;4.27;;;;;4.60;97008.00;;;;8300259;28;20650;-74
2023/04/03 06:54:27;;;;;;;7.90;4.27;;;;;4.60;97006.00;;;;8300661;28;20292;-74
2023/04/03 06:58:30;;;;;;;6.07;4.20;;;;;4.70;97018.00;;;;8299201;28;20222;-74
2023/04/03 07:02:38;;;;;;;6.27;4.10;;;;;4.80;97022.00;;;;8299536;28;20222;-74
2023/04/03 07:06:45;;;;;;;6.27;4.40;;;;;4.90;97022.00;;;;8299760;28;20233;-73
2023/04/03 07:10:48;;;;;;;5.23;4.20;;;;;5.00;97030.00;;;;8299367;28;20194;-73
2023/04/03 07:14:52;;;;;;;7.50;4.53;;;;;5.10;97028.00;;;;8299495;28;20206;-73
2023/04/03 07:19:00;;;;;;;5.23;4.17;;;;;5.10;97036.00;;;;8298936;28;20229;-73
2023/04/03 07:23:03;;;;;;;10.80;5.43;;;;;5.20;97037.00;;;;8299136;28;20508;-73
2023/04/03 07:27:08;;;;;;;6.83;4.13;;;;;5.40;97043.00;;;;8299577;28;20261;-73
2023/04/03 07:31:16;;;;;;;10.90;4.23;;;;;5.60;97048.00;;;;8298667;28;20247;-74
2023/04/03 07:35:24;;;;;;;6.77;4.00;;;;;5.60;97044.00;;;;8298483;28;20232;-73
2023/04/03 07:39:27;;;;;;;6.77;4.10;;;;;5.70;97052.00;;;;8299273;28;20729;-72
2023/04/03 07:43:31;;;;;;;4.30;3.70;;;;;5.80;97052.00;;;;8298418;28;20194;-71
2023/04/03 07:47:34;;;;;;;8.07;4.37;;;;;5.80;97048.00;;;;8297814;28;20198;-72
2023/04/03 07:51:40;;;;;;;4.87;3.57;;;;;6.00;97060.00;;;;8298815;28;20202;-72
2023/04/03 07:55:46;;;;;;;5.90;3.57;;;;;6.20;97061.00;;;;8297685;28;20202;-72
2023/04/03 07:59:49;;;;;;;8.97;3.60;;;;;6.20;97060.00;;;;8298526;28;20222;-72
2023/04/03 08:03:56;;;;;;;5.80;3.20;;;;;6.10;97045.00;;;;8298859;28;20217;-72
2023/04/03 08:08:03;;;;;;;4.70;3.47;;;;;6.00;97056.00;;;;8298349;28;20244;-72
2023/04/03 08:12:19;;;;;;;6.30;3.43;;;;;6.00;97058.00;;;;8298412;28;20210;-71
2023/04/03 08:16:26;;;;;;;7.47;3.20;;;;;6.30;97059.00;;;;8295566;28;20209;-71
2023/04/03 08:20:31;;;;;;;5.87;3.23;;;;;6.70;97059.00;;;;8296084;28;20619;-73
2023/04/03 08:24:36;;;;;;;6.00;3.00;;;;;7.10;97061.00;;;;8297679;28;20586;-74
2023/04/03 08:28:43;;;;;;;6.60;2.77;;;;;7.50;97052.00;;;;8297896;28;20186;-73
2023/04/03 08:32:48;;;;;;;2.83;2.40;;;;;8.00;97057.00;;;;8298115;28;20194;-72
2023/04/03 08:36:52;;;;;;;4.13;1.97;;;;;8.60;97065.00;;;;8295605;28;20200;-73
2023/04/03 08:41:12;;;;;;;6.57;2.73;;;;;7.50;97068.00;;;;8302500;28;20555;-73
2023/04/03 08:45:21;;;;;;;3.03;2.77;;;;;7.20;97059.00;;;;8303850;28;20573;-73
2023/04/03 08:49:30;;;;;;;4.03;2.60;;;;;7.20;97071.00;;;;8302701;28;20532;-73
2023/04/03 08:53:42;;;;;;;6.27;2.80;;;;;7.10;97075.00;;;;8301090;28;20201;-72
2023/04/03 08:57:49;;;;;;;7.70;2.40;;;;;7.00;97079.00;;;;8303353;28;20198;-73
2023/04/03 09:01:54;;;;;;;2.13;1.90;;;;;6.90;97077.00;;;;8302504;28;20225;-73
2023/04/03 09:06:06;;;;;;;4.50;1.80;;;;;6.80;97084.00;;;;8303230;28;20201;-73
2023/04/03 09:10:14;;;;;;;4.27;2.50;;;;;6.80;97081.00;;;;8304623;28;20205;-74
2023/04/03 09:14:27;;;;;;;3.57;1.90;;;;;6.60;97086.00;;;;8302126;28;20233;-75
2023/04/03 09:18:33;;;;;;;1.70;1.60;;;;;6.60;97079.00;;;;8303633;28;20582;-74
2023/04/03 09:22:41;;;;;;;4.97;2.07;;;;;6.40;97079.00;;;;8302406;28;20190;-74
2023/04/03 09:26:59;;;;;;;2.20;1.67;;;;;6.80;97085.00;;;;8302895;28;20189;-74
2023/04/03 09:31:19;;;;;;;2.97;2.00;;;;;7.90;97085.00;;;;8301946;28;20198;-73
2023/04/03 09:35:26;;;;;;;2.50;1.70;;;;;8.30;97094.00;;;;8300617;28;20608;-73
2023/04/03 09:39:53;;;;;;;2.00;1.80;;;;;7.40;97094.00;;;;8301897;28;20220;-73
2023/04/03 09:43:59;;;;;;;9.33;4.33;;;;;6.90;97094.00;;;;8302356;28;20635;-73
2023/04/03 09:48:17;;;;;;;3.70;2.00;;;;;6.80;97089.00;;;;8301045;28;20202;-73
2023/04/03 09:52:26;;;;;;;3.10;1.67;;;;;6.80;97082.00;;;;8299764;28;20198;-73
2023/04/03 09:56:31;;;;;;;3.93;2.10;;;;;8.20;97090.00;;;;8302273;28;20244;-73
2023/04/03 10:00:39;;;;;;;1.93;1.83;;;;;7.70;97086.00;;;;8298647;28;20272;-72
2023/04/03 10:04:44;;;;;;;2.37;1.70;;;;;7.90;97084.00;;;;8300739;28;20217;-73
2023/04/03 10:09:00;;;;;;;3.20;1.70;;;;;8.60;97084.00;;;;8301603;28;20276;-73
2023/04/03 10:13:13;;;;;;;3.20;1.70;;;;;9.40;97084.00;;;;8300479;28;20206;-72
2023/04/03 10:17:36;;;;;;;3.43;2.17;;;;;9.90;97081.00;;;;8300456;28;20251;-71
2023/04/03 10:21:50;;;;;;;2.03;1.83;;;;;9.70;97078.00;;;;8301096;28;20725;-74
2023/04/03 10:26:15;;;;;;;1.67;1.57;;;;;9.30;97080.00;;;;8299351;28;20194;-73
2023/04/03 10:30:43;;;;;;;3.13;1.70;;;;;8.90;97074.00;;;;8300871;28;20665;-74
2023/04/03 10:34:47;;;;;;;2.80;2.00;;;;;8.50;97072.00;;;;8300121;28;20239;-73
2023/04/03 10:39:16;;;;;;;1.87;1.77;;;;;7.80;97073.00;;;;8300458;28;20609;-73
2023/04/03 10:43:30;;;;;;;2.10;1.87;;;;;7.90;97070.00;;;;8282250;28;20195;-73
2023/04/03 10:47:41;;;;;;;2.27;1.93;;;;;8.20;97071.00;;;;8299882;28;20182;-73
2023/04/03 10:51:50;;;;;;;3.00;2.17;;;;;8.00;97060.00;;;;8299129;28;20614;-74
2023/04/03 10:56:02;;;;;;;4.27;2.07;;;;;8.20;97062.00;;;;8299793;28;20194;-73
2023/04/03 11:00:14;;;;;;;1.70;1.60;;;;;8.30;97063.00;;;;8282090;28;20229;-73
2023/04/03 11:04:23;;;;;;;2.67;1.70;;;;;8.30;97068.00;;;;8299169;28;20229;-74
2023/04/03 11:08:34;;;;;;;2.90;1.80;;;;;8.30;97058.00;;;;8299001;28;20300;-74
2023/04/03 11:12:43;;;;;;;2.93;2.10;;;;;8.50;97058.00;;;;8299248;28;20194;-73
2023/04/03 11:17:00;;;;;;;3.90;1.90;;;;;8.40;97051.00;;;;8298905;28;20200;-74
2023/04/03 11:21:08;;;;;;;4.83;1.87;;;;;8.70;97055.00;;;;8298855;28;20232;-73
2023/04/03 11:25:22;;;;;;;1.90;1.70;;;;;8.70;97061.00;;;;8299056;28;20202;-73
2023/04/03 11:29:36;;;;;;;2.60;1.80;;;;;8.60;97058.00;;;;8298812;28;20688;-73
2023/04/03 11:33:52;;;;;;;2.37;1.70;;;;;9.30;97042.00;;;;8298341;28;20237;-73
2023/04/03 11:37:56;;;;;;;1.37;1.37;;;;;9.10;97051.00;;;;8299266;28;20631;-73
2023/04/03 11:42:16;;;;;;;2.70;1.77;;;;;8.70;97042.00;;;;8297698;28;20232;-73
2023/04/03 11:46:20;;;;;;;2.40;1.80;;;;;8.90;97038.00;;;;8298678;28;20267;-73
2023/04/03 11:50:39;;;;;;;2.47;1.60;;;;;8.30;97031.00;;;;8298491;28;20268;-73
2023/04/03 11:54:52;;;;;;;2.20;1.97;;;;;7.80;97027.00;;;;8298824;28;20517;-73
2023/04/03 11:59:24;;;;;;;6.50;1.87;;;;;8.00;97026.00;;;;8298649;28;20181;-73
2023/04/03 12:04:14;;;;;;;1.97;1.77;;;;;8.30;97030.00;;;;8298883;28;20320;-72
2023/04/03 12:08:27;;;;;;;1.97;1.70;;;;;8.30;97028.00;;;;8271298;28;20194;-72
2023/04/03 12:12:39;;;;;;;1.70;1.60;;;;;8.00;97027.00;;;;8298635;28;20579;-72
2023/04/03 12:16:45;;;;;;;3.17;1.70;;;;;7.70;97027.00;;;;8303599;28;20253;-72
2023/04/03 12:20:57;;;;;;;2.13;1.60;;;;;7.60;97023.00;;;;8303894;28;20214;-72
2023/04/03 12:25:49;;;;;;;3.50;1.90;;;;;7.50;97009.00;;;;8304823;28;20273;-72
2023/04/03 12:29:59;;;;;;;1.80;1.70;;;;;7.60;97018.00;;;;8303738;28;20193;-73
2023/04/03 12:34:25;;;;;;;2.30;1.93;;;;;7.70;97011.00;;;;8304992;28;20225;-73
2023/04/03 12:39:02;;;;;;;1.80;1.70;;;;;8.40;97010.00;;;;8304014;28;20194;-73
2023/04/03 12:43:30;;;;;;;3.50;1.83;;;;;8.70;97022.00;;;;8301835;28;20209;-73
2023/04/03 12:47:37;;;;;;;4.10;1.77;;;;;8.80;97007.00;;;;8304465;28;20701;-73
2023/04/03 12:51:47;;;;;;;4.17;1.67;;;;;8.70;97007.00;;;;8303544;28;20297;-73
2023/04/03 12:55:57;;;;;;;3.00;1.53;;;;;8.40;97005.00;;;;8304587;28;20653;-73
2023/04/03 13:00:32;;;;;;;2.77;2.10;;;;;8.10;97000.00;;;;8303258;28;20685;-72
2023/04/03 13:04:35;;;;;;;1.93;1.80;;;;;8.30;96976.00;;;;8304473;28;20367;-73
2023/04/03 13:08:49;;;;;;;5.10;1.97;;;;;8.90;96976.00;;;;8302929;28;20202;-73
2023/04/03 13:12:56;;;;;;;1.87;1.77;;;;;9.20;97007.00;;;;8303017;28;20194;-73
2023/04/03 13:17:02;;;;;;;2.23;1.50;;;;;8.80;96988.00;;;;8302536;28;20182;-73
2023/04/03 13:21:17;;;;;;;1.70;1.60;;;;;8.50;96987.00;;;;8303892;28;20214;-73
2023/04/03 13:25:26;;;;;;;2.80;1.70;;;;;8.40;96991.00;;;;8302596;28;20256;-73
2023/04/03 13:29:36;;;;;;;3.27;1.60;;;;;8.30;96973.00;;;;8304030;28;20233;-73
2023/04/03 13:33:40;;;;;;;2.77;1.57;;;;;8.50;96981.00;;;;8286039;28;20602;-71
2023/04/03 13:37:55;;;;;;;3.83;1.90;;;;;8.40;96975.00;;;;8302021;28;20197;-73
2023/04/03 13:42:01;;;;;;;1.43;1.40;;;;;8.70;96973.00;;;;8302449;28;20309;-73
2023/04/03 13:46:27;;;;;;;11.23;2.17;;;;;8.90;96976.00;;;;8301665;28;20638;-74
2023/04/03 13:50:30;;;;;;;1.80;1.70;;;;;9.30;96977.00;;;;8302650;28;20221;-73
2023/04/03 13:54:38;;;;;;;2.67;1.60;;;;;9.30;96976.00;;;;8301553;28;20202;-73
2023/04/03 13:58:56;;;;;;;4.33;1.90;;;;;9.80;96965.00;;;;8302274;28;20294;-73
2023/04/03 14:03:01;;;;;;;2.60;1.80;;;;;10.10;96969.00;;;;8301876;28;20226;-76
2023/04/03 14:07:05;;;;;;;2.30;2.00;;;;;10.50;96978.00;;;;8302218;28;20209;-76
2023/04/03 14:11:14;;;;;;;2.03;1.80;;;;;10.90;96989.00;;;;8301053;28;20202;-76
2023/04/03 14:15:21;;;;;;;5.97;1.60;;;;;10.40;96981.00;;;;8299383;28;20685;-74
2023/04/03 14:19:28;;;;;;;4.50;1.90;;;;;9.70;96973.00;;;;8301191;28;20217;-74
2023/04/03 14:23:32;;;;;;;2.00;1.70;;;;;9.30;96977.00;;;;8299497;28;20194;-73
2023/04/03 14:27:40;;;;;;;4.17;1.70;;;;;9.70;96962.00;;;;8300672;28;20194;-73
2023/04/03 14:31:46;;;;;;;2.43;1.60;;;;;9.30;96969.00;;;;8299733;28;20239;-73
2023/04/03 14:35:58;;;;;;;2.13;1.93;;;;;8.80;96973.00;;;;8301211;28;20646;-72
2023/04/03 14:40:04;;;;;;;4.00;1.93;;;;;9.00;96969.00;;;;8299591;28;20233;-73
2023/04/03 14:44:16;;;;;;;2.30;1.57;;;;;9.30;96970.00;;;;8300570;28;20239;-73
2023/04/03 14:48:22;;;;;;;1.90;1.80;;;;;8.60;96972.00;;;;8300340;28;20186;-73
2023/04/03 14:52:30;;;;;;;3.13;1.80;;;;;8.10;96971.00;;;;8300227;28;20527;-73
2023/04/03 14:56:33;;;;;;;3.10;1.70;;;;;8.40;96966.00;;;;8299408;28;20263;-73
2023/04/03 15:00:39;;;;;;;2.40;1.90;;;;;8.80;96959.00;;;;8299684;28;20222;-73
2023/04/03 15:04:42;;;;;;;1.73;1.63;;;;;9.10;96979.00;;;;8299360;28;20214;-73
2023/04/03 15:08:53;;;;;;;4.80;2.00;;;;;8.80;96977.00;;;;8282594;28;20201;-73
2023/04/03 15:13:00;;;;;;;4.67;2.07;;;;;8.40;96982.00;;;;8298154;28;20195;-73
2023/04/03 15:17:06;;;;;;;2.87;2.10;;;;;7.90;96985.00;;;;8299175;28;20197;-73
2023/04/03 15:21:09;;;;;;;4.20;2.40;;;;;8.20;96984.00;;;;8298299;28;20389;-73
2023/04/03 15:25:14;;;;;;;4.23;2.20;;;;;8.80;96983.00;;;;8299665;28;20606;-73
2023/04/03 15:29:17;;;;;;;4.30;2.63;;;;;9.00;96980.00;;;;8299234;28;20578;-73
2023/04/03 15:33:20;;;;;;;3.73;2.60;;;;;9.10;96977.00;;;;8299603;28;20203;-73
2023/04/03 15:37:27;;;;;;;2.10;2.00;;;;;8.50;96992.00;;;;8298562;28;20229;-73
2023/04/03 15:41:35;;;;;;;3.33;2.10;;;;;7.90;96987.00;;;;8298456;28;20280;-73
2023/04/03 15:45:38;;;;;;;3.70;1.97;;;;;7.80;96977.00;;;;8299477;28;20540;-73
2023/04/03 15:49:45;;;;;;;1.97;1.87;;;;;8.00;96985.00;;;;8302958;28;20198;-73
2023/04/03 15:53:54;;;;;;;1.80;1.70;;;;;8.30;96984.00;;;;8305075;28;20228;-73
2023/04/03 15:57:59;;;;;;;1.60;1.50;;;;;8.40;96996.00;;;;8305636;28;20190;-73
2023/04/03 16:02:12;;;;;;;4.70;2.10;;;;;8.30;96983.00;;;;8304892;28;20566;-74
2023/04/03 16:06:19;;;;;;;4.90;2.20;;;;;8.60;96987.00;;;;8305462;28;20194;-73
2023/04/03 16:10:23;;;;;;;4.13;2.10;;;;;8.80;96992.00;;;;8303833;28;20268;-73
2023/04/03 16:14:36;;;;;;;2.95;2.17;;;;;8.40;96993.00;;;;8304221;28;20194;-74
2023/04/03 16:18:39;;;;;;;3.95;2.28;;;;;8.20;97001.00;;;;8305466;28;20248;-74
2023/04/03 16:22:55;;;;;;;3.77;1.90;;;;;7.80;96990.00;;;;8305366;28;20268;-74
2023/04/03 16:26:58;;;;;;;3.43;2.20;;;;;7.50;96998.00;;;;8303612;28;20608;-74
2023/04/03 16:31:06;;;;;;;3.20;2.37;;;;;7.50;96992.00;;;;8287071;28;20229;-75
2023/04/03 16:35:12;;;;;;;7.53;2.30;;;;;7.40;97006.00;;;;8304181;28;20693;-74
2023/04/03 16:39:17;;;;;;;3.07;2.00;;;;;7.20;97009.00;;;;8304842;28;20194;-74
2023/04/03 16:43:20;;;;;;;3.70;2.20;;;;;6.80;97020.00;;;;8303285;28;20276;-74
2023/04/03 16:47:25;;;;;;;2.77;1.93;;;;;6.60;97021.00;;;;8304518;28;20615;-73
2023/04/03 16:51:33;;;;;;;2.43;2.23;;;;;6.40;97037.00;;;;8303544;28;20531;-74
2023/04/03 16:55:36;;;;;;;4.53;2.10;;;;;6.20;97033.00;;;;8287013;28;20198;-74
2023/04/03 16:59:40;;;;;;;2.90;2.20;;;;;6.00;97042.00;;;;8302143;28;20531;-73
2023/04/03 17:03:45;;;;;;;2.60;2.10;;;;;5.90;97043.00;;;;8303759;28;20238;-74
2023/04/03 17:07:48;;;;;;;3.03;2.20;;;;;5.70;97037.00;;;;8285941;28;20202;-73
2023/04/03 17:11:51;;;;;;;6.17;2.10;;;;;5.60;97047.00;;;;8285549;28;20205;-74
2023/04/03 17:15:54;;;;;;;3.57;2.43;;;;;5.50;97047.00;;;;8303562;28;20202;-74
2023/04/03 17:19:59;;;;;;;3.63;2.30;;;;;5.40;97054.00;;;;8302805;28;20205;-74
2023/04/03 17:24:07;;;;;;;4.30;2.27;;;;;5.30;97056.00;;;;8302315;28;20243;-73
2023/04/03 17:28:10;;;;;;;2.30;2.17;;;;;5.10;97067.00;;;;8303195;28;20234;-74
2023/04/03 17:32:13;;;;;;;3.47;2.07;;;;;5.00;97069.00;;;;8302899;28;20208;-73
2023/04/03 17:36:17;;;;;;;5.20;3.10;;;;;4.80;97065.00;;;;8299323;28;20198;-75
2023/04/03 17:40:23;;;;;;;3.77;2.43;;;;;4.60;97071.00;;;;8301209;28;20196;-74
2023/04/03 17:44:26;;;;;;;5.43;3.30;;;;;4.50;97078.00;;;;8301311;28;20221;-75
2023/04/03 17:48:31;;;;;;;2.73;2.50;;;;;4.40;97075.00;;;;8302683;28;20288;-76
2023/04/03 17:52:40;;;;;;;3.23;2.30;;;;;4.30;97064.00;;;;8297150;28;20217;-75
2023/04/03 17:56:46;;;;;;;2.50;2.40;;;;;4.20;97076.00;;;;8301324;28;20619;-75
2023/04/03 18:00:59;;;;;;;3.40;2.17;;;;;4.10;97083.00;;;;8300726;28;20292;-75
2023/04/03 18:05:03;;;;;;;2.37;2.17;;;;;4.00;97088.00;;;;8302430;28;20524;-74
2023/04/03 18:09:11;;;;;;;3.33;2.60;;;;;3.80;97082.00;;;;8298995;28;20196;-73
2023/04/03 18:13:14;;;;;;;3.40;2.10;;;;;3.70;97083.00;;;;8300504;28;20197;-73
2023/04/03 18:17:19;;;;;;;4.23;2.40;;;;;3.60;97085.00;;;;8301484;28;20190;-74
2023/04/03 18:21:25;;;;;;;4.00;2.60;;;;;3.50;97091.00;;;;8300775;28;20222;-74
2023/04/03 18:25:30;;;;;;;4.90;3.03;;;;;3.40;97083.00;;;;8300695;28;20210;-74
2023/04/03 18:29:46;;;;;;;4.67;2.80;;;;;3.20;97089.00;;;;8301432;28;20634;-74
2023/04/03 18:33:54;;;;;;;3.10;2.60;;;;;3.10;97089.00;;;;8299717;28;20201;-75
2023/04/03 18:37:58;;;;;;;3.67;2.20;;;;;3.10;97096.00;;;;8300475;28;20209;-75
2023/04/03 18:42:13;;;;;;;6.50;2.87;;;;;3.00;97097.00;;;;8295651;28;20220;-75
2023/04/03 18:46:18;;;;;;;2.70;2.50;;;;;3.00;97095.00;;;;8301102;28;20192;-75
2023/04/03 18:50:21;;;;;;;3.80;2.50;;;;;3.00;97106.00;;;;8299903;28;20282;-75
2023/04/03 18:54:25;;;;;;;2.90;2.70;;;;;2.90;97115.00;;;;8300672;28;20527;-76
2023/04/03 18:58:32;;;;;;;6.07;2.67;;;;;2.80;97108.00;;;;8299899;28;20625;-77
2023/04/03 19:02:35;;;;;;;5.63;2.27;;;;;2.70;97106.00;;;;8300326;28;20239;-79
2023/04/03 19:06:41;;;;;;;4.07;3.13;;;;;2.60;97109.00;;;;8298553;28;20218;-76
2023/04/03 19:10:45;;;;;;;3.70;2.60;;;;;2.50;97105.00;;;;8299336;28;20201;-76
2023/04/03 19:14:53;;;;;;;5.37;3.13;;;;;2.50;97112.00;;;;8299395;28;20283;-76
2023/04/03 19:18:56;;;;;;;4.43;3.07;;;;;2.40;97100.00;;;;8299210;28;20527;-77
2023/04/03 19:23:00;;;;;;;5.90;3.40;;;;;2.30;97104.00;;;;8299538;28;20537;-76
2023/04/03 19:27:06;;;;;;;3.43;2.83;;;;;2.20;97106.00;;;;8298783;28;20256;-74
2023/04/03 19:31:13;;;;;;;3.50;2.60;;;;;2.10;97108.00;;;;8299318;28;20198;-75
2023/04/03 19:35:16;;;;;;;4.23;2.30;;;;;2.10;97113.00;;;;8298319;28;20193;-74
2023/04/03 19:39:19;;;;;;;3.40;2.60;;;;;2.10;97112.00;;;;8298893;28;20227;-74
2023/04/03 19:43:21;;;;;;;5.27;2.73;;;;;2.20;97114.00;;;;8298856;28;20666;-73
2023/04/03 19:47:28;;;;;;;2.80;2.20;;;;;2.30;97111.00;;;;8299793;28;20199;-74
2023/04/03 19:51:31;;;;;;;4.10;2.73;;;;;2.40;97109.00;;;;8297280;28;20194;-75
2023/04/03 19:55:35;;;;;;;2.63;2.43;;;;;2.50;97109.00;;;;8298686;28;20214;-75
2023/04/03 19:59:38;;;;;;;2.90;2.40;;;;;2.50;97111.00;;;;8298000;28;20204;-74
2023/04/03 20:03:45;;;;;;;3.33;2.93;;;;;2.50;97115.00;;;;8299516;28;20227;-74
2023/04/03 20:07:49;;;;;;;12.33;4.30;;;;;2.50;97128.00;;;;8296363;28;20203;-75
2023/04/03 20:11:52;;;;;;;11.00;4.03;;;;;2.40;97114.00;;;;8293717;28;20201;-75
2023/04/03 20:15:57;;;;;;;3.57;2.90;;;;;2.40;97115.00;;;;8299242;28;20197;-74
2023/04/03 20:20:03;;;;;;;4.00;2.57;;;;;2.40;97119.00;;;;8296775;28;20503;-73
2023/04/03 20:24:08;;;;;;;2.87;2.63;;;;;2.30;97116.00;;;;8297578;28;20276;-72
2023/04/03 20:28:15;;;;;;;3.93;2.90;;;;;2.20;97113.00;;;;8298314;28;20202;-72
2023/04/03 20:32:20;;;;;;;2.97;2.47;;;;;2.20;97119.00;;;;8297345;28;20195;-72
2023/04/03 20:36:29;;;;;;;4.37;2.53;;;;;2.20;97117.00;;;;8301651;28;20201;-72
2023/04/03 20:40:36;;;;;;;2.67;2.47;;;;;2.30;97120.00;;;;8303803;28;20201;-71
2023/04/03 20:44:39;;;;;;;3.63;2.47;;;;;2.30;97115.00;;;;8304016;28;20222;-70
2023/04/03 20:48:42;;;;;;;4.70;2.57;;;;;2.20;97112.00;;;;8303254;28;20223;-71
2023/04/03 20:52:48;;;;;;;3.63;2.77;;;;;2.20;97112.00;;;;8303924;28;20543;-70